sensor_id;sensor_type;location;lat;lon;timestamp;P1;durP1;ratioP1;P2;durP2;ratioP2
76852;SDS011;65825;52.232;10.566;2023-07-31T00:00:28;8.43;;;3.10;;
76852;SDS011;65825;52.232;10.566;2023-07-31T00:02:54;6.70;;;2.90;;
76852;SDS011;65825;52.232;10.566;2023-07-31T00:05:20;6.80;;;2.78;;
76852;SDS011;65825;52.232;10.566;2023-07-31T00:07:45;6.80;;;2.60;;
76852;SDS011;65825;52.232;10.566;2023-07-31T00:10:11;6.05;;;3.03;;
76852;SDS011;65825;52.232;10.566;2023-07-31T00:12:37;5.72;;;2.75;;
76852;SDS011;65825;52.232;10.566;2023-07-31T00:15:03;5.72;;;2.88;;
76852;SDS011;65825;52.232;10.566;2023-07-31T00:17:29;11.07;;;2.80;;
76852;SDS011;65825;52.232;10.566;2023-07-31T00:19:54;8.05;;;2.85;;
76852;SDS011;65825;52.232;10.566;2023-07-31T00:22:20;8.17;;;2.60;;
76852;SDS011;65825;52.232;10.566;2023-07-31T00:24:45;6.28;;;2.78;;
76852;SDS011;65825;52.232;10.566;2023-07-31T00:27:10;7.75;;;2.53;;
76852;SDS011;65825;52.232;10.566;2023-07-31T00:29:36;5.88;;;2.90;;
76852;SDS011;65825;52.232;10.566;2023-07-31T00:32:01;4.97;;;2.80;;
76852;SDS011;65825;52.232;10.566;2023-07-31T00:34:26;6.70;;;2.45;;
76852;SDS011;65825;52.232;10.566;2023-07-31T00:36:52;4.95;;;2.97;;
76852;SDS011;65825;52.232;10.566;2023-07-31T00:39:17;6.77;;;2.70;;
76852;SDS011;65825;52.232;10.566;2023-07-31T00:41:42;7.00;;;2.57;;
76852;SDS011;65825;52.232;10.566;2023-07-31T00:44:08;6.78;;;2.92;;
76852;SDS011;65825;52.232;10.566;2023-07-31T00:46:33;8.32;;;3.30;;
76852;SDS011;65825;52.232;10.566;2023-07-31T00:48:59;7.55;;;2.88;;
76852;SDS011;65825;52.232;10.566;2023-07-31T00:51:24;6.65;;;3.22;;
76852;SDS011;65825;52.232;10.566;2023-07-31T00:53:50;10.23;;;3.20;;
76852;SDS011;65825;52.232;10.566;2023-07-31T00:56:15;5.55;;;3.10;;
76852;SDS011;65825;52.232;10.566;2023-07-31T00:58:41;8.77;;;3.13;;
76852;SDS011;65825;52.232;10.566;2023-07-31T01:01:06;11.43;;;3.35;;
76852;SDS011;65825;52.232;10.566;2023-07-31T01:03:32;7.53;;;3.30;;
76852;SDS011;65825;52.232;10.566;2023-07-31T01:11:10;6.82;;;2.63;;
76852;SDS011;65825;52.232;10.566;2023-07-31T01:13:42;5.35;;;2.90;;
76852;SDS011;65825;52.232;10.566;2023-07-31T01:16:09;6.80;;;2.70;;
76852;SDS011;65825;52.232;10.566;2023-07-31T01:18:34;9.70;;;2.45;;
76852;SDS011;65825;52.232;10.566;2023-07-31T01:26:34;6.13;;;2.45;;
76852;SDS011;65825;52.232;10.566;2023-07-31T01:29:05;5.10;;;2.40;;
76852;SDS011;65825;52.232;10.566;2023-07-31T01:31:36;5.55;;;2.40;;
76852;SDS011;65825;52.232;10.566;2023-07-31T01:34:01;5.65;;;2.20;;
76852;SDS011;65825;52.232;10.566;2023-07-31T01:36:28;6.40;;;2.13;;
76852;SDS011;65825;52.232;10.566;2023-07-31T01:38:58;6.50;;;2.20;;
76852;SDS011;65825;52.232;10.566;2023-07-31T01:41:25;5.47;;;1.80;;
76852;SDS011;65825;52.232;10.566;2023-07-31T01:43:50;5.68;;;2.15;;
76852;SDS011;65825;52.232;10.566;2023-07-31T01:46:15;5.80;;;2.10;;
76852;SDS011;65825;52.232;10.566;2023-07-31T01:48:41;6.82;;;2.10;;
76852;SDS011;65825;52.232;10.566;2023-07-31T01:51:06;4.80;;;2.40;;
76852;SDS011;65825;52.232;10.566;2023-07-31T01:53:31;4.45;;;2.08;;
76852;SDS011;65825;52.232;10.566;2023-07-31T01:55:57;4.85;;;1.92;;
76852;SDS011;65825;52.232;10.566;2023-07-31T01:58:22;6.10;;;1.98;;
76852;SDS011;65825;52.232;10.566;2023-07-31T02:00:48;5.45;;;1.92;;
76852;SDS011;65825;52.232;10.566;2023-07-31T02:03:13;3.08;;;1.73;;
76852;SDS011;65825;52.232;10.566;2023-07-31T02:05:45;3.08;;;1.60;;
76852;SDS011;65825;52.232;10.566;2023-07-31T02:08:11;4.82;;;1.80;;
76852;SDS011;65825;52.232;10.566;2023-07-31T02:10:36;3.90;;;1.60;;
76852;SDS011;65825;52.232;10.566;2023-07-31T02:13:01;4.50;;;1.70;;
76852;SDS011;65825;52.232;10.566;2023-07-31T02:15:28;4.25;;;1.63;;
76852;SDS011;65825;52.232;10.566;2023-07-31T02:20:20;3.63;;;1.80;;
76852;SDS011;65825;52.232;10.566;2023-07-31T02:22:45;3.77;;;1.60;;
76852;SDS011;65825;52.232;10.566;2023-07-31T02:25:10;3.87;;;1.70;;
76852;SDS011;65825;52.232;10.566;2023-07-31T02:27:35;4.15;;;1.60;;
76852;SDS011;65825;52.232;10.566;2023-07-31T02:30:01;4.17;;;1.70;;
76852;SDS011;65825;52.232;10.566;2023-07-31T02:32:26;3.23;;;1.53;;
76852;SDS011;65825;52.232;10.566;2023-07-31T02:34:51;4.38;;;1.90;;
76852;SDS011;65825;52.232;10.566;2023-07-31T02:37:17;4.15;;;1.67;;
76852;SDS011;65825;52.232;10.566;2023-07-31T02:39:42;3.07;;;1.57;;
76852;SDS011;65825;52.232;10.566;2023-07-31T02:42:07;3.92;;;1.70;;
76852;SDS011;65825;52.232;10.566;2023-07-31T02:44:33;4.45;;;1.58;;
76852;SDS011;65825;52.232;10.566;2023-07-31T02:46:58;2.50;;;1.50;;
76852;SDS011;65825;52.232;10.566;2023-07-31T02:49:23;4.00;;;1.97;;
76852;SDS011;65825;52.232;10.566;2023-07-31T02:51:48;6.50;;;1.70;;
76852;SDS011;65825;52.232;10.566;2023-07-31T02:54:14;4.05;;;1.67;;
76852;SDS011;65825;52.232;10.566;2023-07-31T02:56:39;3.92;;;1.70;;
76852;SDS011;65825;52.232;10.566;2023-07-31T02:59:04;2.80;;;1.70;;
76852;SDS011;65825;52.232;10.566;2023-07-31T03:01:30;4.13;;;1.60;;
76852;SDS011;65825;52.232;10.566;2023-07-31T03:03:55;3.08;;;1.85;;
76852;SDS011;65825;52.232;10.566;2023-07-31T03:06:21;4.70;;;1.75;;
76852;SDS011;65825;52.232;10.566;2023-07-31T03:08:47;3.63;;;1.65;;
76852;SDS011;65825;52.232;10.566;2023-07-31T03:11:12;10.27;;;2.10;;
76852;SDS011;65825;52.232;10.566;2023-07-31T03:13:37;2.73;;;1.63;;
76852;SDS011;65825;52.232;10.566;2023-07-31T03:16:02;4.13;;;1.90;;
76852;SDS011;65825;52.232;10.566;2023-07-31T03:18:28;4.00;;;1.75;;
76852;SDS011;65825;52.232;10.566;2023-07-31T03:20:53;3.83;;;1.50;;
76852;SDS011;65825;52.232;10.566;2023-07-31T03:23:18;4.25;;;1.85;;
76852;SDS011;65825;52.232;10.566;2023-07-31T03:26:00;4.20;;;1.60;;
76852;SDS011;65825;52.232;10.566;2023-07-31T03:28:26;5.82;;;1.73;;
76852;SDS011;65825;52.232;10.566;2023-07-31T03:30:52;3.28;;;1.80;;
76852;SDS011;65825;52.232;10.566;2023-07-31T03:33:18;3.67;;;1.75;;
76852;SDS011;65825;52.232;10.566;2023-07-31T03:35:44;2.83;;;1.50;;
76852;SDS011;65825;52.232;10.566;2023-07-31T03:38:09;3.53;;;1.73;;
76852;SDS011;65825;52.232;10.566;2023-07-31T03:40:35;4.00;;;1.70;;
76852;SDS011;65825;52.232;10.566;2023-07-31T03:43:00;6.45;;;1.95;;
76852;SDS011;65825;52.232;10.566;2023-07-31T03:45:25;4.60;;;1.77;;
76852;SDS011;65825;52.232;10.566;2023-07-31T03:47:50;4.18;;;1.80;;
76852;SDS011;65825;52.232;10.566;2023-07-31T03:50:16;5.53;;;1.73;;
76852;SDS011;65825;52.232;10.566;2023-07-31T03:52:42;3.80;;;1.70;;
76852;SDS011;65825;52.232;10.566;2023-07-31T03:55:07;4.07;;;1.70;;
76852;SDS011;65825;52.232;10.566;2023-07-31T03:57:32;3.97;;;1.55;;
76852;SDS011;65825;52.232;10.566;2023-07-31T03:59:58;2.95;;;1.58;;
76852;SDS011;65825;52.232;10.566;2023-07-31T04:02:23;4.60;;;1.80;;
76852;SDS011;65825;52.232;10.566;2023-07-31T04:04:49;4.13;;;2.03;;
76852;SDS011;65825;52.232;10.566;2023-07-31T04:07:14;6.63;;;1.98;;
76852;SDS011;65825;52.232;10.566;2023-07-31T04:09:39;5.97;;;2.13;;
76852;SDS011;65825;52.232;10.566;2023-07-31T04:12:05;8.17;;;2.30;;
76852;SDS011;65825;52.232;10.566;2023-07-31T04:14:30;3.72;;;1.90;;
76852;SDS011;65825;52.232;10.566;2023-07-31T04:16:56;4.32;;;2.25;;
76852;SDS011;65825;52.232;10.566;2023-07-31T04:19:21;5.53;;;2.37;;
76852;SDS011;65825;52.232;10.566;2023-07-31T04:21:46;4.40;;;2.17;;
76852;SDS011;65825;52.232;10.566;2023-07-31T04:24:11;4.53;;;2.37;;
76852;SDS011;65825;52.232;10.566;2023-07-31T04:26:37;5.27;;;2.20;;
76852;SDS011;65825;52.232;10.566;2023-07-31T04:29:02;3.85;;;2.22;;
76852;SDS011;65825;52.232;10.566;2023-07-31T04:31:27;3.87;;;1.90;;
76852;SDS011;65825;52.232;10.566;2023-07-31T04:33:52;4.33;;;2.20;;
76852;SDS011;65825;52.232;10.566;2023-07-31T04:36:18;4.60;;;1.97;;
76852;SDS011;65825;52.232;10.566;2023-07-31T04:38:43;3.23;;;1.80;;
76852;SDS011;65825;52.232;10.566;2023-07-31T04:41:08;5.67;;;1.90;;
76852;SDS011;65825;52.232;10.566;2023-07-31T04:43:33;4.10;;;1.90;;
76852;SDS011;65825;52.232;10.566;2023-07-31T04:45:59;3.50;;;1.60;;
76852;SDS011;65825;52.232;10.566;2023-07-31T04:48:24;3.22;;;1.40;;
76852;SDS011;65825;52.232;10.566;2023-07-31T04:50:49;2.90;;;1.50;;
76852;SDS011;65825;52.232;10.566;2023-07-31T04:53:15;4.80;;;1.80;;
76852;SDS011;65825;52.232;10.566;2023-07-31T04:55:40;3.80;;;1.70;;
76852;SDS011;65825;52.232;10.566;2023-07-31T04:58:05;4.75;;;1.60;;
76852;SDS011;65825;52.232;10.566;2023-07-31T05:00:31;4.10;;;1.35;;
76852;SDS011;65825;52.232;10.566;2023-07-31T05:02:56;3.97;;;1.63;;
76852;SDS011;65825;52.232;10.566;2023-07-31T05:05:21;2.67;;;1.60;;
76852;SDS011;65825;52.232;10.566;2023-07-31T05:07:47;2.67;;;1.40;;
76852;SDS011;65825;52.232;10.566;2023-07-31T05:10:12;3.47;;;1.45;;
76852;SDS011;65825;52.232;10.566;2023-07-31T05:12:37;2.33;;;1.33;;
76852;SDS011;65825;52.232;10.566;2023-07-31T05:15:03;3.10;;;1.50;;
76852;SDS011;65825;52.232;10.566;2023-07-31T05:17:29;3.40;;;1.60;;
76852;SDS011;65825;52.232;10.566;2023-07-31T05:19:54;2.60;;;1.40;;
76852;SDS011;65825;52.232;10.566;2023-07-31T05:22:19;3.67;;;1.50;;
76852;SDS011;65825;52.232;10.566;2023-07-31T05:24:45;2.78;;;1.50;;
76852;SDS011;65825;52.232;10.566;2023-07-31T05:27:10;3.45;;;1.40;;
76852;SDS011;65825;52.232;10.566;2023-07-31T05:29:35;3.45;;;1.50;;
76852;SDS011;65825;52.232;10.566;2023-07-31T05:32:01;2.65;;;1.55;;
76852;SDS011;65825;52.232;10.566;2023-07-31T05:34:26;3.85;;;1.30;;
76852;SDS011;65825;52.232;10.566;2023-07-31T05:36:52;3.10;;;1.45;;
76852;SDS011;65825;52.232;10.566;2023-07-31T05:39:17;3.13;;;1.52;;
76852;SDS011;65825;52.232;10.566;2023-07-31T05:41:44;4.35;;;1.92;;
76852;SDS011;65825;52.232;10.566;2023-07-31T05:44:09;4.65;;;1.90;;
76852;SDS011;65825;52.232;10.566;2023-07-31T05:46:35;3.30;;;1.60;;
76852;SDS011;65825;52.232;10.566;2023-07-31T05:49:00;4.53;;;1.57;;
76852;SDS011;65825;52.232;10.566;2023-07-31T05:51:25;4.05;;;1.83;;
76852;SDS011;65825;52.232;10.566;2023-07-31T05:53:51;4.85;;;1.90;;
76852;SDS011;65825;52.232;10.566;2023-07-31T05:56:16;5.90;;;2.47;;
76852;SDS011;65825;52.232;10.566;2023-07-31T05:58:42;5.10;;;2.30;;
76852;SDS011;65825;52.232;10.566;2023-07-31T06:01:07;3.77;;;2.10;;
76852;SDS011;65825;52.232;10.566;2023-07-31T06:03:32;7.20;;;2.13;;
76852;SDS011;65825;52.232;10.566;2023-07-31T06:05:58;4.97;;;2.10;;
76852;SDS011;65825;52.232;10.566;2023-07-31T06:08:23;4.80;;;1.90;;
76852;SDS011;65825;52.232;10.566;2023-07-31T06:10:48;3.73;;;1.90;;
76852;SDS011;65825;52.232;10.566;2023-07-31T06:13:13;6.38;;;2.15;;
76852;SDS011;65825;52.232;10.566;2023-07-31T06:15:39;5.78;;;2.13;;
76852;SDS011;65825;52.232;10.566;2023-07-31T06:18:04;4.05;;;2.00;;
76852;SDS011;65825;52.232;10.566;2023-07-31T06:20:32;5.32;;;2.05;;
76852;SDS011;65825;52.232;10.566;2023-07-31T06:22:59;7.60;;;2.78;;
76852;SDS011;65825;52.232;10.566;2023-07-31T06:25:24;7.15;;;3.17;;
76852;SDS011;65825;52.232;10.566;2023-07-31T06:27:49;6.78;;;3.03;;
76852;SDS011;65825;52.232;10.566;2023-07-31T06:30:14;8.53;;;3.60;;
76852;SDS011;65825;52.232;10.566;2023-07-31T06:32:40;7.30;;;3.67;;
76852;SDS011;65825;52.232;10.566;2023-07-31T06:35:06;7.53;;;3.67;;
76852;SDS011;65825;52.232;10.566;2023-07-31T06:37:31;8.98;;;3.85;;
76852;SDS011;65825;52.232;10.566;2023-07-31T06:39:57;12.27;;;3.85;;
76852;SDS011;65825;52.232;10.566;2023-07-31T06:42:22;8.85;;;4.18;;
76852;SDS011;65825;52.232;10.566;2023-07-31T06:44:47;9.65;;;3.40;;
76852;SDS011;65825;52.232;10.566;2023-07-31T06:47:13;9.25;;;4.05;;
76852;SDS011;65825;52.232;10.566;2023-07-31T06:49:38;6.72;;;3.75;;
76852;SDS011;65825;52.232;10.566;2023-07-31T06:52:03;10.10;;;3.63;;
76852;SDS011;65825;52.232;10.566;2023-07-31T06:54:29;6.10;;;3.25;;
76852;SDS011;65825;52.232;10.566;2023-07-31T06:56:54;6.35;;;3.47;;
76852;SDS011;65825;52.232;10.566;2023-07-31T06:59:19;9.93;;;3.30;;
76852;SDS011;65825;52.232;10.566;2023-07-31T07:01:45;8.75;;;3.55;;
76852;SDS011;65825;52.232;10.566;2023-07-31T07:04:10;8.60;;;3.50;;
76852;SDS011;65825;52.232;10.566;2023-07-31T07:06:35;7.20;;;3.63;;
76852;SDS011;65825;52.232;10.566;2023-07-31T07:09:01;9.50;;;4.43;;
76852;SDS011;65825;52.232;10.566;2023-07-31T07:11:26;8.45;;;3.30;;
76852;SDS011;65825;52.232;10.566;2023-07-31T07:13:51;7.80;;;3.67;;
76852;SDS011;65825;52.232;10.566;2023-07-31T07:16:17;8.55;;;3.60;;
76852;SDS011;65825;52.232;10.566;2023-07-31T07:18:42;9.18;;;3.78;;
76852;SDS011;65825;52.232;10.566;2023-07-31T07:21:07;8.82;;;3.72;;
76852;SDS011;65825;52.232;10.566;2023-07-31T07:23:33;9.10;;;4.28;;
76852;SDS011;65825;52.232;10.566;2023-07-31T07:25:58;7.32;;;3.83;;
76852;SDS011;65825;52.232;10.566;2023-07-31T07:28:24;10.45;;;4.05;;
76852;SDS011;65825;52.232;10.566;2023-07-31T07:30:52;9.93;;;4.83;;
76852;SDS011;65825;52.232;10.566;2023-07-31T07:33:20;9.13;;;4.22;;
76852;SDS011;65825;52.232;10.566;2023-07-31T07:35:46;12.33;;;5.03;;
76852;SDS011;65825;52.232;10.566;2023-07-31T07:38:11;9.02;;;4.60;;
76852;SDS011;65825;52.232;10.566;2023-07-31T07:40:39;12.52;;;4.70;;
76852;SDS011;65825;52.232;10.566;2023-07-31T07:43:05;10.95;;;4.93;;
76852;SDS011;65825;52.232;10.566;2023-07-31T07:45:30;11.27;;;4.70;;
76852;SDS011;65825;52.232;10.566;2023-07-31T07:47:55;13.20;;;4.60;;
76852;SDS011;65825;52.232;10.566;2023-07-31T07:50:21;12.57;;;5.18;;
76852;SDS011;65825;52.232;10.566;2023-07-31T07:52:46;14.38;;;5.43;;
76852;SDS011;65825;52.232;10.566;2023-07-31T07:55:11;15.67;;;5.57;;
76852;SDS011;65825;52.232;10.566;2023-07-31T07:57:37;11.80;;;4.60;;
76852;SDS011;65825;52.232;10.566;2023-07-31T08:00:02;14.48;;;4.97;;
76852;SDS011;65825;52.232;10.566;2023-07-31T08:02:28;13.50;;;4.80;;
76852;SDS011;65825;52.232;10.566;2023-07-31T08:04:53;11.70;;;4.83;;
76852;SDS011;65825;52.232;10.566;2023-07-31T08:07:18;14.17;;;5.40;;
76852;SDS011;65825;52.232;10.566;2023-07-31T08:09:43;14.57;;;5.43;;
76852;SDS011;65825;52.232;10.566;2023-07-31T08:12:09;13.73;;;5.00;;
76852;SDS011;65825;52.232;10.566;2023-07-31T08:14:34;13.13;;;4.67;;
76852;SDS011;65825;52.232;10.566;2023-07-31T08:19:25;13.90;;;5.00;;
76852;SDS011;65825;52.232;10.566;2023-07-31T08:21:51;9.33;;;4.10;;
76852;SDS011;65825;52.232;10.566;2023-07-31T08:24:16;13.15;;;4.45;;
76852;SDS011;65825;52.232;10.566;2023-07-31T08:26:41;10.80;;;4.20;;
76852;SDS011;65825;52.232;10.566;2023-07-31T08:29:07;12.32;;;4.45;;
76852;SDS011;65825;52.232;10.566;2023-07-31T08:31:32;11.05;;;4.18;;
76852;SDS011;65825;52.232;10.566;2023-07-31T08:33:58;14.02;;;4.55;;
76852;SDS011;65825;52.232;10.566;2023-07-31T08:36:23;10.32;;;4.43;;
76852;SDS011;65825;52.232;10.566;2023-07-31T08:41:15;9.25;;;4.10;;
76852;SDS011;65825;52.232;10.566;2023-07-31T08:43:42;10.57;;;4.55;;
76852;SDS011;65825;52.232;10.566;2023-07-31T08:46:09;10.98;;;4.18;;
76852;SDS011;65825;52.232;10.566;2023-07-31T08:48:35;11.65;;;4.50;;
76852;SDS011;65825;52.232;10.566;2023-07-31T08:51:02;10.55;;;4.40;;
76852;SDS011;65825;52.232;10.566;2023-07-31T08:53:27;14.98;;;4.78;;
76852;SDS011;65825;52.232;10.566;2023-07-31T08:55:52;12.70;;;4.65;;
76852;SDS011;65825;52.232;10.566;2023-07-31T08:58:19;9.32;;;4.75;;
76852;SDS011;65825;52.232;10.566;2023-07-31T09:00:45;9.68;;;5.32;;
76852;SDS011;65825;52.232;10.566;2023-07-31T09:03:15;12.15;;;5.72;;
76852;SDS011;65825;52.232;10.566;2023-07-31T09:05:43;10.40;;;4.70;;
76852;SDS011;65825;52.232;10.566;2023-07-31T09:08:10;8.35;;;4.65;;
76852;SDS011;65825;52.232;10.566;2023-07-31T09:10:43;11.05;;;5.20;;
76852;SDS011;65825;52.232;10.566;2023-07-31T09:13:10;13.05;;;4.65;;
76852;SDS011;65825;52.232;10.566;2023-07-31T09:15:36;8.73;;;4.60;;
76852;SDS011;65825;52.232;10.566;2023-07-31T09:20:28;9.82;;;4.55;;
76852;SDS011;65825;52.232;10.566;2023-07-31T09:22:54;12.20;;;4.60;;
76852;SDS011;65825;52.232;10.566;2023-07-31T09:27:57;11.05;;;5.30;;
76852;SDS011;65825;52.232;10.566;2023-07-31T09:30:24;10.88;;;4.60;;
76852;SDS011;65825;52.232;10.566;2023-07-31T09:35:22;10.43;;;4.35;;
76852;SDS011;65825;52.232;10.566;2023-07-31T09:37:53;13.70;;;5.15;;
76852;SDS011;65825;52.232;10.566;2023-07-31T09:40:27;17.60;;;4.80;;
76852;SDS011;65825;52.232;10.566;2023-07-31T09:43:01;10.85;;;4.38;;
76852;SDS011;65825;52.232;10.566;2023-07-31T09:45:28;8.50;;;3.88;;
76852;SDS011;65825;52.232;10.566;2023-07-31T09:47:54;8.57;;;3.90;;
76852;SDS011;65825;52.232;10.566;2023-07-31T09:50:21;8.63;;;3.78;;
76852;SDS011;65825;52.232;10.566;2023-07-31T09:52:47;10.93;;;4.68;;
76852;SDS011;65825;52.232;10.566;2023-07-31T09:55:12;8.63;;;3.90;;
76852;SDS011;65825;52.232;10.566;2023-07-31T09:57:39;9.10;;;3.80;;
76852;SDS011;65825;52.232;10.566;2023-07-31T10:00:07;12.02;;;4.68;;
76852;SDS011;65825;52.232;10.566;2023-07-31T10:02:36;10.30;;;4.45;;
76852;SDS011;65825;52.232;10.566;2023-07-31T10:07:29;11.50;;;4.43;;
76852;SDS011;65825;52.232;10.566;2023-07-31T10:09:57;11.20;;;4.55;;
76852;SDS011;65825;52.232;10.566;2023-07-31T10:12:25;11.30;;;4.32;;
76852;SDS011;65825;52.232;10.566;2023-07-31T10:14:53;7.25;;;3.42;;
76852;SDS011;65825;52.232;10.566;2023-07-31T10:17:20;8.88;;;3.80;;
76852;SDS011;65825;52.232;10.566;2023-07-31T10:19:47;7.65;;;3.50;;
76852;SDS011;65825;52.232;10.566;2023-07-31T10:24:39;7.55;;;3.45;;
76852;SDS011;65825;52.232;10.566;2023-07-31T10:27:06;9.77;;;3.58;;
76852;SDS011;65825;52.232;10.566;2023-07-31T10:29:32;6.93;;;3.70;;
76852;SDS011;65825;52.232;10.566;2023-07-31T10:31:58;5.22;;;2.80;;
76852;SDS011;65825;52.232;10.566;2023-07-31T10:36:50;6.32;;;2.70;;
76852;SDS011;65825;52.232;10.566;2023-07-31T10:39:54;5.75;;;2.78;;
76852;SDS011;65825;52.232;10.566;2023-07-31T10:42:32;5.35;;;2.55;;
76852;SDS011;65825;52.232;10.566;2023-07-31T10:45:13;6.55;;;2.60;;
76852;SDS011;65825;52.232;10.566;2023-07-31T10:47:43;5.82;;;2.60;;
76852;SDS011;65825;52.232;10.566;2023-07-31T10:50:16;6.18;;;2.78;;
76852;SDS011;65825;52.232;10.566;2023-07-31T10:52:50;6.10;;;2.72;;
76852;SDS011;65825;52.232;10.566;2023-07-31T10:58:11;4.88;;;2.50;;
76852;SDS011;65825;52.232;10.566;2023-07-31T11:00:37;8.68;;;3.00;;
76852;SDS011;65825;52.232;10.566;2023-07-31T11:03:05;7.70;;;2.85;;
76852;SDS011;65825;52.232;10.566;2023-07-31T11:05:51;5.30;;;2.88;;
76852;SDS011;65825;52.232;10.566;2023-07-31T11:08:22;6.80;;;2.80;;
76852;SDS011;65825;52.232;10.566;2023-07-31T11:10:50;4.95;;;2.75;;
76852;SDS011;65825;52.232;10.566;2023-07-31T11:13:29;7.03;;;2.92;;
76852;SDS011;65825;52.232;10.566;2023-07-31T11:15:55;6.25;;;2.58;;
76852;SDS011;65825;52.232;10.566;2023-07-31T11:20:46;4.55;;;2.70;;
76852;SDS011;65825;52.232;10.566;2023-07-31T11:23:12;5.63;;;2.70;;
76852;SDS011;65825;52.232;10.566;2023-07-31T11:28:05;4.32;;;2.30;;
76852;SDS011;65825;52.232;10.566;2023-07-31T11:30:32;5.78;;;2.95;;
76852;SDS011;65825;52.232;10.566;2023-07-31T11:32:59;5.50;;;2.90;;
76852;SDS011;65825;52.232;10.566;2023-07-31T11:35:26;4.72;;;2.67;;
76852;SDS011;65825;52.232;10.566;2023-07-31T11:37:51;9.13;;;3.03;;
76852;SDS011;65825;52.232;10.566;2023-07-31T11:40:17;6.15;;;2.90;;
76852;SDS011;65825;52.232;10.566;2023-07-31T11:42:43;5.70;;;2.70;;
76852;SDS011;65825;52.232;10.566;2023-07-31T11:47:35;4.78;;;2.70;;
76852;SDS011;65825;52.232;10.566;2023-07-31T11:50:05;6.03;;;2.67;;
76852;SDS011;65825;52.232;10.566;2023-07-31T11:52:33;5.32;;;2.53;;
76852;SDS011;65825;52.232;10.566;2023-07-31T11:55:03;4.97;;;3.08;;
76852;SDS011;65825;52.232;10.566;2023-07-31T11:57:29;5.18;;;3.13;;
76852;SDS011;65825;52.232;10.566;2023-07-31T12:02:21;6.82;;;3.17;;
76852;SDS011;65825;52.232;10.566;2023-07-31T12:04:47;6.50;;;2.80;;
76852;SDS011;65825;52.232;10.566;2023-07-31T12:09:38;6.10;;;2.87;;
76852;SDS011;65825;52.232;10.566;2023-07-31T12:12:07;7.07;;;2.53;;
76852;SDS011;65825;52.232;10.566;2023-07-31T12:14:33;6.57;;;2.60;;
76852;SDS011;65825;52.232;10.566;2023-07-31T12:16:59;5.38;;;2.63;;
76852;SDS011;65825;52.232;10.566;2023-07-31T12:19:26;5.38;;;2.63;;
76852;SDS011;65825;52.232;10.566;2023-07-31T12:21:54;8.38;;;2.67;;
76852;SDS011;65825;52.232;10.566;2023-07-31T12:24:20;8.23;;;2.50;;
76852;SDS011;65825;52.232;10.566;2023-07-31T12:26:45;6.68;;;2.78;;
76852;SDS011;65825;52.232;10.566;2023-07-31T12:29:12;5.32;;;2.55;;
76852;SDS011;65825;52.232;10.566;2023-07-31T12:31:37;4.22;;;2.60;;
76852;SDS011;65825;52.232;10.566;2023-07-31T12:34:14;5.40;;;2.58;;
76852;SDS011;65825;52.232;10.566;2023-07-31T12:36:41;7.25;;;2.65;;
76852;SDS011;65825;52.232;10.566;2023-07-31T12:41:32;4.47;;;2.40;;
76852;SDS011;65825;52.232;10.566;2023-07-31T12:43:58;8.73;;;2.50;;
76852;SDS011;65825;52.232;10.566;2023-07-31T12:48:48;8.13;;;2.33;;
76852;SDS011;65825;52.232;10.566;2023-07-31T12:53:39;4.80;;;2.53;;
76852;SDS011;65825;52.232;10.566;2023-07-31T12:56:05;7.63;;;2.70;;
76852;SDS011;65825;52.232;10.566;2023-07-31T12:58:30;6.55;;;3.13;;
76852;SDS011;65825;52.232;10.566;2023-07-31T13:03:21;4.22;;;2.05;;
76852;SDS011;65825;52.232;10.566;2023-07-31T13:05:46;3.40;;;2.00;;
76852;SDS011;65825;52.232;10.566;2023-07-31T13:08:12;5.15;;;2.00;;
76852;SDS011;65825;52.232;10.566;2023-07-31T13:10:37;4.85;;;1.88;;
76852;SDS011;65825;52.232;10.566;2023-07-31T13:13:02;5.75;;;2.28;;
76852;SDS011;65825;52.232;10.566;2023-07-31T13:17:53;4.73;;;2.27;;
76852;SDS011;65825;52.232;10.566;2023-07-31T13:20:18;6.80;;;2.53;;
76852;SDS011;65825;52.232;10.566;2023-07-31T13:22:44;8.32;;;2.60;;
76852;SDS011;65825;52.232;10.566;2023-07-31T13:25:09;5.47;;;2.27;;
76852;SDS011;65825;52.232;10.566;2023-07-31T13:27:35;5.03;;;2.10;;
76852;SDS011;65825;52.232;10.566;2023-07-31T13:32:25;4.10;;;2.03;;
76852;SDS011;65825;52.232;10.566;2023-07-31T13:34:51;4.28;;;1.83;;
76852;SDS011;65825;52.232;10.566;2023-07-31T13:37:16;3.50;;;1.75;;
76852;SDS011;65825;52.232;10.566;2023-07-31T13:39:42;3.67;;;1.60;;
76852;SDS011;65825;52.232;10.566;2023-07-31T13:42:08;3.22;;;1.58;;
76852;SDS011;65825;52.232;10.566;2023-07-31T13:44:36;2.80;;;1.60;;
76852;SDS011;65825;52.232;10.566;2023-07-31T13:47:02;3.83;;;1.45;;
76852;SDS011;65825;52.232;10.566;2023-07-31T13:49:28;3.72;;;1.60;;
76852;SDS011;65825;52.232;10.566;2023-07-31T13:51:53;2.15;;;1.38;;
76852;SDS011;65825;52.232;10.566;2023-07-31T13:54:19;3.42;;;2.00;;
76852;SDS011;65825;52.232;10.566;2023-07-31T13:56:44;3.55;;;1.60;;
76852;SDS011;65825;52.232;10.566;2023-07-31T13:59:10;3.95;;;1.70;;
76852;SDS011;65825;52.232;10.566;2023-07-31T14:01:35;4.78;;;1.70;;
76852;SDS011;65825;52.232;10.566;2023-07-31T14:04:01;3.40;;;1.67;;
76852;SDS011;65825;52.232;10.566;2023-07-31T14:06:26;4.88;;;1.60;;
76852;SDS011;65825;52.232;10.566;2023-07-31T14:08:51;3.27;;;1.90;;
76852;SDS011;65825;52.232;10.566;2023-07-31T14:11:16;6.15;;;2.08;;
76852;SDS011;65825;52.232;10.566;2023-07-31T14:13:42;3.47;;;1.90;;
76852;SDS011;65825;52.232;10.566;2023-07-31T14:16:07;3.63;;;1.50;;
76852;SDS011;65825;52.232;10.566;2023-07-31T14:18:32;3.13;;;1.50;;
76852;SDS011;65825;52.232;10.566;2023-07-31T14:20:58;3.17;;;1.60;;
76852;SDS011;65825;52.232;10.566;2023-07-31T14:23:23;3.42;;;1.45;;
76852;SDS011;65825;52.232;10.566;2023-07-31T14:25:48;2.88;;;1.23;;
76852;SDS011;65825;52.232;10.566;2023-07-31T14:28:14;4.70;;;1.30;;
76852;SDS011;65825;52.232;10.566;2023-07-31T14:30:39;1.83;;;1.20;;
76852;SDS011;65825;52.232;10.566;2023-07-31T14:33:04;2.00;;;1.20;;
76852;SDS011;65825;52.232;10.566;2023-07-31T14:35:30;4.25;;;1.38;;
76852;SDS011;65825;52.232;10.566;2023-07-31T14:37:55;2.50;;;1.20;;
76852;SDS011;65825;52.232;10.566;2023-07-31T14:40:20;2.00;;;1.20;;
76852;SDS011;65825;52.232;10.566;2023-07-31T14:42:46;1.73;;;1.52;;
76852;SDS011;65825;52.232;10.566;2023-07-31T14:45:11;2.10;;;1.30;;
76852;SDS011;65825;52.232;10.566;2023-07-31T14:47:36;2.40;;;1.40;;
76852;SDS011;65825;52.232;10.566;2023-07-31T14:50:02;2.90;;;1.23;;
76852;SDS011;65825;52.232;10.566;2023-07-31T14:52:28;5.32;;;1.42;;
76852;SDS011;65825;52.232;10.566;2023-07-31T14:57:19;2.03;;;1.38;;
76852;SDS011;65825;52.232;10.566;2023-07-31T15:02:10;2.10;;;1.50;;
76852;SDS011;65825;52.232;10.566;2023-07-31T15:07:01;3.28;;;1.63;;
76852;SDS011;65825;52.232;10.566;2023-07-31T15:11:52;4.13;;;1.60;;
76852;SDS011;65825;52.232;10.566;2023-07-31T15:16:43;3.23;;;1.60;;
76852;SDS011;65825;52.232;10.566;2023-07-31T15:21:35;3.78;;;1.60;;
76852;SDS011;65825;52.232;10.566;2023-07-31T15:24:01;3.13;;;1.75;;
76852;SDS011;65825;52.232;10.566;2023-07-31T15:29:00;3.43;;;2.33;;
76852;SDS011;65825;52.232;10.566;2023-07-31T15:31:27;3.33;;;1.90;;
76852;SDS011;65825;52.232;10.566;2023-07-31T15:36:18;4.78;;;2.00;;
76852;SDS011;65825;52.232;10.566;2023-07-31T15:41:09;4.10;;;2.03;;
76852;SDS011;65825;52.232;10.566;2023-07-31T15:43:34;3.55;;;1.88;;
76852;SDS011;65825;52.232;10.566;2023-07-31T15:48:27;5.03;;;2.13;;
76852;SDS011;65825;52.232;10.566;2023-07-31T15:50:54;3.88;;;1.95;;
76852;SDS011;65825;52.232;10.566;2023-07-31T15:53:19;4.50;;;2.30;;